<?xml version="1.0" encoding="UTF-8" standalone="no" ?><gpx xmlns="http://www.topografix.com/GPX/1/1" xmlns:gpxx="http://www.garmin.com/xmlschemas/GpxExtensions/v3" xmlns:wptx1="http://www.garmin.com/xmlschemas/WaypointExtension/v1" xmlns:gpxtpx="http://www.garmin.com/xmlschemas/TrackPointExtension/v1" creator="Dakota 20" version="1.1" xmlns:xsi="http://www.w3.org/2001/XMLSchema-instance" xsi:schemaLocation="http://www.topografix.com/GPX/1/1 http://www.topografix.com/GPX/1/1/gpx.xsd http://www.garmin.com/xmlschemas/GpxExtensions/v3 http://www8.garmin.com/xmlschemas/GpxExtensionsv3.xsd http://www.garmin.com/xmlschemas/WaypointExtension/v1 http://www8.garmin.com/xmlschemas/WaypointExtensionv1.xsd http://www.garmin.com/xmlschemas/TrackPointExtension/v1 http://www.garmin.com/xmlschemas/TrackPointExtensionv1.xsd"><metadata><link href="http://www.garmin.com"><text>Garmin International</text></link><time>2015-11-04T19:11:29Z</time></metadata><trk><name>Current Track: 04 NOV 2015 10:00</name><extensions><gpxx:TrackExtension><gpxx:DisplayColor>Cyan</gpxx:DisplayColor></gpxx:TrackExtension></extensions><trkseg><trkpt lat="51.7700249702" lon="-1.9732756075"><ele>137.13</ele><time>2015-11-04T10:00:22Z</time></trkpt><trkpt lat="51.7700680532" lon="-1.9733227137"><ele>136.64</ele><time>2015-11-04T10:00:40Z</time></trkpt><trkpt lat="51.7701967992" lon="-1.9734599255"><ele>137.13</ele><time>2015-11-04T10:00:52Z</time></trkpt><trkpt lat="51.7702101264" lon="-1.9735059422"><ele>136.64</ele><time>2015-11-04T10:00:55Z</time></trkpt><trkpt lat="51.7701944523" lon="-1.9736778550"><ele>136.64</ele><time>2015-11-04T10:01:04Z</time></trkpt><trkpt lat="51.7700935341" lon="-1.9739243668"><ele>136.16</ele><time>2015-11-04T10:01:20Z</time></trkpt><trkpt lat="51.7699648719" lon="-1.9740148913"><ele>136.64</ele><time>2015-11-04T10:01:35Z</time></trkpt><trkpt lat="51.7699442524" lon="-1.9740455691"><ele>136.64</ele><time>2015-11-04T10:01:51Z</time></trkpt><trkpt lat="51.7698461004" lon="-1.9741244428"><ele>136.64</ele><time>2015-11-04T10:02:03Z</time></trkpt><trkpt lat="51.7696637101" lon="-1.9743254408"><ele>136.64</ele><time>2015-11-04T10:02:21Z</time></trkpt><trkpt lat="51.7695000954" lon="-1.9744712021"><ele>136.64</ele><time>2015-11-04T10:02:41Z</time></trkpt><trkpt lat="51.7693751212" lon="-1.9744785782"><ele>137.61</ele><time>2015-11-04T10:02:59Z</time></trkpt><trkpt lat="51.7692145240" lon="-1.9744150434"><ele>138.57</ele><time>2015-11-04T10:03:18Z</time></trkpt><trkpt lat="51.7690832634" lon="-1.9744109362"><ele>138.57</ele><time>2015-11-04T10:03:38Z</time></trkpt><trkpt lat="51.7689771485" lon="-1.9744828530"><ele>139.05</ele><time>2015-11-04T10:03:52Z</time></trkpt><trkpt lat="51.7688547727" lon="-1.9746136945"><ele>139.05</ele><time>2015-11-04T10:04:07Z</time></trkpt><trkpt lat="51.7687991168" lon="-1.9746005349"><ele>139.05</ele><time>2015-11-04T10:04:29Z</time></trkpt><trkpt lat="51.7687319778" lon="-1.9746109284"><ele>139.05</ele><time>2015-11-04T10:04:57Z</time></trkpt><trkpt lat="51.7687546089" lon="-1.9745748863"><ele>139.53</ele><time>2015-11-04T10:05:27Z</time></trkpt><trkpt lat="51.7687647510" lon="-1.9745551888"><ele>139.05</ele><time>2015-11-04T10:05:53Z</time></trkpt><trkpt lat="51.7687625717" lon="-1.9747290295"><ele>140.01</ele><time>2015-11-04T10:06:09Z</time></trkpt><trkpt lat="51.7687276192" lon="-1.9747514930"><ele>140.49</ele><time>2015-11-04T10:06:27Z</time></trkpt><trkpt lat="51.7687165551" lon="-1.9746970944"><ele>140.49</ele><time>2015-11-04T10:06:51Z</time></trkpt><trkpt lat="51.7687089276" lon="-1.9745850284"><ele>140.49</ele><time>2015-11-04T10:07:04Z</time></trkpt><trkpt lat="51.7687686067" lon="-1.9745612238"><ele>141.93</ele><time>2015-11-04T10:07:23Z</time></trkpt><trkpt lat="51.7687183153" lon="-1.9745108485"><ele>140.49</ele><time>2015-11-04T10:07:36Z</time></trkpt><trkpt lat="51.7687023897" lon="-1.9746849407"><ele>140.01</ele><time>2015-11-04T10:07:52Z</time></trkpt><trkpt lat="51.7686964385" lon="-1.9746940769"><ele>140.01</ele><time>2015-11-04T10:08:09Z</time></trkpt><trkpt lat="51.7686867993" lon="-1.9747766387"><ele>140.01</ele><time>2015-11-04T10:08:22Z</time></trkpt><trkpt lat="51.7687096819" lon="-1.9748782273"><ele>140.01</ele><time>2015-11-04T10:08:39Z</time></trkpt><trkpt lat="51.7686966062" lon="-1.9749023672"><ele>140.97</ele><time>2015-11-04T10:08:58Z</time></trkpt><trkpt lat="51.7685165629" lon="-1.9748208113"><ele>142.41</ele><time>2015-11-04T10:09:16Z</time></trkpt><trkpt lat="51.7684810236" lon="-1.9746604655"><ele>142.89</ele><time>2015-11-04T10:09:28Z</time></trkpt><trkpt lat="51.7684381921" lon="-1.9743341580"><ele>143.85</ele><time>2015-11-04T10:09:45Z</time></trkpt><trkpt lat="51.7683890741" lon="-1.9742043223"><ele>144.34</ele><time>2015-11-04T10:10:01Z</time></trkpt><trkpt lat="51.7682903353" lon="-1.9740966149"><ele>145.30</ele><time>2015-11-04T10:10:17Z</time></trkpt><trkpt lat="51.7682508565" lon="-1.9740916695"><ele>145.78</ele><time>2015-11-04T10:10:25Z</time></trkpt><trkpt lat="51.7681299895" lon="-1.9741200842"><ele>147.70</ele><time>2015-11-04T10:10:41Z</time></trkpt><trkpt lat="51.7680331785" lon="-1.9742712937"><ele>148.66</ele><time>2015-11-04T10:10:56Z</time></trkpt><trkpt lat="51.7679610942" lon="-1.9744225033"><ele>150.58</ele><time>2015-11-04T10:11:12Z</time></trkpt><trkpt lat="51.7679685540" lon="-1.9744318910"><ele>151.06</ele><time>2015-11-04T10:11:28Z</time></trkpt><trkpt lat="51.7679397203" lon="-1.9745852798"><ele>151.54</ele><time>2015-11-04T10:11:43Z</time></trkpt><trkpt lat="51.7679053545" lon="-1.9748648163"><ele>153.47</ele><time>2015-11-04T10:12:00Z</time></trkpt><trkpt lat="51.7678568233" lon="-1.9750704244"><ele>154.91</ele><time>2015-11-04T10:12:14Z</time></trkpt><trkpt lat="51.7678859085" lon="-1.9750830811"><ele>154.91</ele><time>2015-11-04T10:12:29Z</time></trkpt><trkpt lat="51.7679132335" lon="-1.9750586059"><ele>155.39</ele><time>2015-11-04T10:12:47Z</time></trkpt><trkpt lat="51.7678824719" lon="-1.9751235656"><ele>155.39</ele><time>2015-11-04T10:13:02Z</time></trkpt><trkpt lat="51.7677532230" lon="-1.9751334563"><ele>156.35</ele><time>2015-11-04T10:13:18Z</time></trkpt><trkpt lat="51.7676495388" lon="-1.9751831610"><ele>157.31</ele><time>2015-11-04T10:13:36Z</time></trkpt><trkpt lat="51.7675145902" lon="-1.9752174430"><ele>158.75</ele><time>2015-11-04T10:13:54Z</time></trkpt><trkpt lat="51.7673031986" lon="-1.9753806386"><ele>159.24</ele><time>2015-11-04T10:14:15Z</time></trkpt><trkpt lat="51.7670644820" lon="-1.9754585065"><ele>159.72</ele><time>2015-11-04T10:14:35Z</time></trkpt><trkpt lat="51.7669639830" lon="-1.9755526353"><ele>160.20</ele><time>2015-11-04T10:14:47Z</time></trkpt><trkpt lat="51.7667611409" lon="-1.9756532181"><ele>161.16</ele><time>2015-11-04T10:15:07Z</time></trkpt><trkpt lat="51.7667090893" lon="-1.9756906014"><ele>161.64</ele><time>2015-11-04T10:15:12Z</time></trkpt><trkpt lat="51.7665780801" lon="-1.9757833052"><ele>162.12</ele><time>2015-11-04T10:15:26Z</time></trkpt><trkpt lat="51.7663905770" lon="-1.9759503566"><ele>163.08</ele><time>2015-11-04T10:15:46Z</time></trkpt><trkpt lat="51.7663526908" lon="-1.9760046713"><ele>163.08</ele><time>2015-11-04T10:16:07Z</time></trkpt><trkpt lat="51.7662730627" lon="-1.9760049228"><ele>163.08</ele><time>2015-11-04T10:16:23Z</time></trkpt><trkpt lat="51.7661885731" lon="-1.9760946929"><ele>163.08</ele><time>2015-11-04T10:16:38Z</time></trkpt><trkpt lat="51.7660747468" lon="-1.9762110338"><ele>163.56</ele><time>2015-11-04T10:16:52Z</time></trkpt><trkpt lat="51.7659482639" lon="-1.9764134567"><ele>164.04</ele><time>2015-11-04T10:17:08Z</time></trkpt><trkpt lat="51.7658373713" lon="-1.9766860362"><ele>165.48</ele><time>2015-11-04T10:17:30Z</time></trkpt><trkpt lat="51.7657998204" lon="-1.9767608866"><ele>161.64</ele><time>2015-11-04T10:17:43Z</time></trkpt><trkpt lat="51.7657998204" lon="-1.9767609704"><ele>165.48</ele><time>2015-11-04T10:17:44Z</time></trkpt><trkpt lat="51.7657995690" lon="-1.9767613057"><ele>172.69</ele><time>2015-11-04T10:17:45Z</time></trkpt><trkpt lat="51.7657999042" lon="-1.9767647423"><ele>167.89</ele><time>2015-11-04T10:17:46Z</time></trkpt><trkpt lat="51.7656864133" lon="-1.9770130143"><ele>168.85</ele><time>2015-11-04T10:18:00Z</time></trkpt><trkpt lat="51.7655626964" lon="-1.9772494677"><ele>170.77</ele><time>2015-11-04T10:18:17Z</time></trkpt><trkpt lat="51.7654844094" lon="-1.9774425030"><ele>171.25</ele><time>2015-11-04T10:18:33Z</time></trkpt><trkpt lat="51.7654027697" lon="-1.9776547328"><ele>172.69</ele><time>2015-11-04T10:18:52Z</time></trkpt><trkpt lat="51.7654026020" lon="-1.9776512962"><ele>172.69</ele><time>2015-11-04T10:19:05Z</time></trkpt><trkpt lat="51.7653082218" lon="-1.9778558984"><ele>174.14</ele><time>2015-11-04T10:19:21Z</time></trkpt><trkpt lat="51.7652395740" lon="-1.9780737441"><ele>175.58</ele><time>2015-11-04T10:19:37Z</time></trkpt><trkpt lat="51.7651793081" lon="-1.9783415459"><ele>176.54</ele><time>2015-11-04T10:19:56Z</time></trkpt><trkpt lat="51.7651344649" lon="-1.9785331562"><ele>177.50</ele><time>2015-11-04T10:20:11Z</time></trkpt><trkpt lat="51.7650729418" lon="-1.9788033050"><ele>178.46</ele><time>2015-11-04T10:20:30Z</time></trkpt><trkpt lat="51.7650275957" lon="-1.9790379982"><ele>179.42</ele><time>2015-11-04T10:20:47Z</time></trkpt><trkpt lat="51.7649828363" lon="-1.9792928081"><ele>179.90</ele><time>2015-11-04T10:21:05Z</time></trkpt><trkpt lat="51.7649482191" lon="-1.9794900343"><ele>180.87</ele><time>2015-11-04T10:21:18Z</time></trkpt><trkpt lat="51.7649294436" lon="-1.9796850812"><ele>181.83</ele><time>2015-11-04T10:21:31Z</time></trkpt><trkpt lat="51.7649096623" lon="-1.9799159188"><ele>182.31</ele><time>2015-11-04T10:21:46Z</time></trkpt><trkpt lat="51.7648929823" lon="-1.9801422302"><ele>182.79</ele><time>2015-11-04T10:22:01Z</time></trkpt><trkpt lat="51.7648620531" lon="-1.9804141391"><ele>183.27</ele><time>2015-11-04T10:22:18Z</time></trkpt><trkpt lat="51.7648653220" lon="-1.9805393647"><ele>184.23</ele><time>2015-11-04T10:22:31Z</time></trkpt><trkpt lat="51.7648628913" lon="-1.9807073381"><ele>184.71</ele><time>2015-11-04T10:22:47Z</time></trkpt><trkpt lat="51.7648358177" lon="-1.9808437116"><ele>184.71</ele><time>2015-11-04T10:22:55Z</time></trkpt><trkpt lat="51.7647349834" lon="-1.9810147025"><ele>185.19</ele><time>2015-11-04T10:23:12Z</time></trkpt><trkpt lat="51.7646619771" lon="-1.9811735395"><ele>185.19</ele><time>2015-11-04T10:23:28Z</time></trkpt><trkpt lat="51.7645598855" lon="-1.9813536666"><ele>185.67</ele><time>2015-11-04T10:23:43Z</time></trkpt><trkpt lat="51.7644377612" lon="-1.9815384876"><ele>186.15</ele><time>2015-11-04T10:24:01Z</time></trkpt><trkpt lat="51.7643686105" lon="-1.9816700835"><ele>186.15</ele><time>2015-11-04T10:24:14Z</time></trkpt><trkpt lat="51.7642890662" lon="-1.9817989971"><ele>186.15</ele><time>2015-11-04T10:24:25Z</time></trkpt><trkpt lat="51.7641774192" lon="-1.9820102211"><ele>186.15</ele><time>2015-11-04T10:24:42Z</time></trkpt><trkpt lat="51.7640732322" lon="-1.9822004903"><ele>186.63</ele><time>2015-11-04T10:24:57Z</time></trkpt><trkpt lat="51.7639595736" lon="-1.9824083615"><ele>187.11</ele><time>2015-11-04T10:25:14Z</time></trkpt><trkpt lat="51.7638425622" lon="-1.9826209266"><ele>187.11</ele><time>2015-11-04T10:25:32Z</time></trkpt><trkpt lat="51.7637092900" lon="-1.9828172307"><ele>187.59</ele><time>2015-11-04T10:25:49Z</time></trkpt><trkpt lat="51.7635525484" lon="-1.9829650875"><ele>188.08</ele><time>2015-11-04T10:26:06Z</time></trkpt><trkpt lat="51.7635181826" lon="-1.9829945918"><ele>188.08</ele><time>2015-11-04T10:26:10Z</time></trkpt><trkpt lat="51.7633477785" lon="-1.9830672629"><ele>187.59</ele><time>2015-11-04T10:26:28Z</time></trkpt><trkpt lat="51.7631886061" lon="-1.9831260201"><ele>187.59</ele><time>2015-11-04T10:26:44Z</time></trkpt><trkpt lat="51.7630461138" lon="-1.9831785746"><ele>187.59</ele><time>2015-11-04T10:26:58Z</time></trkpt><trkpt lat="51.7628784757" lon="-1.9832454622"><ele>187.59</ele><time>2015-11-04T10:27:15Z</time></trkpt><trkpt lat="51.7627494782" lon="-1.9833086617"><ele>187.11</ele><time>2015-11-04T10:27:30Z</time></trkpt><trkpt lat="51.7625712790" lon="-1.9833892956"><ele>186.63</ele><time>2015-11-04T10:27:47Z</time></trkpt><trkpt lat="51.7623942532" lon="-1.9834838435"><ele>186.15</ele><time>2015-11-04T10:28:04Z</time></trkpt><trkpt lat="51.7622031458" lon="-1.9835880306"><ele>185.67</ele><time>2015-11-04T10:28:23Z</time></trkpt><trkpt lat="51.7620397825" lon="-1.9836975820"><ele>185.19</ele><time>2015-11-04T10:28:40Z</time></trkpt><trkpt lat="51.7618449032" lon="-1.9838036131"><ele>184.23</ele><time>2015-11-04T10:29:01Z</time></trkpt><trkpt lat="51.7616892513" lon="-1.9839274138"><ele>182.79</ele><time>2015-11-04T10:29:17Z</time></trkpt><trkpt lat="51.7615154944" lon="-1.9840159267"><ele>181.83</ele><time>2015-11-04T10:29:36Z</time></trkpt><trkpt lat="51.7613510415" lon="-1.9841339439"><ele>179.90</ele><time>2015-11-04T10:29:53Z</time></trkpt><trkpt lat="51.7612051964" lon="-1.9842501171"><ele>177.50</ele><time>2015-11-04T10:30:12Z</time></trkpt><trkpt lat="51.7610269971" lon="-1.9843677152"><ele>174.62</ele><time>2015-11-04T10:30:31Z</time></trkpt><trkpt lat="51.7608954851" lon="-1.9844570663"><ele>173.17</ele><time>2015-11-04T10:30:49Z</time></trkpt><trkpt lat="51.7607192136" lon="-1.9845594093"><ele>169.81</ele><time>2015-11-04T10:31:11Z</time></trkpt><trkpt lat="51.7605887912" lon="-1.9845862314"><ele>167.41</ele><time>2015-11-04T10:31:31Z</time></trkpt><trkpt lat="51.7604969256" lon="-1.9846205972"><ele>165.96</ele><time>2015-11-04T10:31:50Z</time></trkpt><trkpt lat="51.7604918126" lon="-1.9846226927"><ele>165.96</ele><time>2015-11-04T10:31:51Z</time></trkpt><trkpt lat="51.7603873741" lon="-1.9846897479"><ele>164.04</ele><time>2015-11-04T10:32:07Z</time></trkpt><trkpt lat="51.7603237554" lon="-1.9847837929"><ele>163.08</ele><time>2015-11-04T10:32:24Z</time></trkpt><trkpt lat="51.7602793314" lon="-1.9849086832"><ele>161.64</ele><time>2015-11-04T10:32:42Z</time></trkpt><trkpt lat="51.7602058221" lon="-1.9851597212"><ele>159.24</ele><time>2015-11-04T10:33:01Z</time></trkpt><trkpt lat="51.7600104399" lon="-1.9854499027"><ele>156.83</ele><time>2015-11-04T10:33:19Z</time></trkpt><trkpt lat="51.7598764133" lon="-1.9856817462"><ele>154.43</ele><time>2015-11-04T10:33:34Z</time></trkpt><trkpt lat="51.7597238626" lon="-1.9858722668"><ele>152.99</ele><time>2015-11-04T10:33:49Z</time></trkpt><trkpt lat="51.7596217711" lon="-1.9860124122"><ele>150.58</ele><time>2015-11-04T10:34:05Z</time></trkpt><trkpt lat="51.7595132254" lon="-1.9861884322"><ele>148.66</ele><time>2015-11-04T10:34:20Z</time></trkpt><trkpt lat="51.7593560647" lon="-1.9864046015"><ele>146.74</ele><time>2015-11-04T10:34:36Z</time></trkpt><trkpt lat="51.7593170889" lon="-1.9864759315"><ele>145.78</ele><time>2015-11-04T10:34:51Z</time></trkpt><trkpt lat="51.7593195196" lon="-1.9865155779"><ele>145.78</ele><time>2015-11-04T10:35:10Z</time></trkpt><trkpt lat="51.7593090422" lon="-1.9865019154"><ele>145.30</ele><time>2015-11-04T10:35:49Z</time></trkpt><trkpt lat="51.7591859121" lon="-1.9864271488"><ele>144.34</ele><time>2015-11-04T10:36:08Z</time></trkpt><trkpt lat="51.7591339443" lon="-1.9862584211"><ele>143.37</ele><time>2015-11-04T10:36:27Z</time></trkpt><trkpt lat="51.7590191960" lon="-1.9860363845"><ele>141.45</ele><time>2015-11-04T10:36:44Z</time></trkpt><trkpt lat="51.7589016818" lon="-1.9858746976"><ele>139.05</ele><time>2015-11-04T10:37:04Z</time></trkpt><trkpt lat="51.7587485444" lon="-1.9856376573"><ele>136.64</ele><time>2015-11-04T10:37:28Z</time></trkpt><trkpt lat="51.7586899549" lon="-1.9855739549"><ele>135.68</ele><time>2015-11-04T10:37:48Z</time></trkpt><trkpt lat="51.7586233187" lon="-1.9854960032"><ele>134.72</ele><time>2015-11-04T10:38:08Z</time></trkpt><trkpt lat="51.7585078999" lon="-1.9853344839"><ele>133.76</ele><time>2015-11-04T10:38:24Z</time></trkpt><trkpt lat="51.7583805788" lon="-1.9851614814"><ele>132.80</ele><time>2015-11-04T10:38:41Z</time></trkpt><trkpt lat="51.7584104184" lon="-1.9852010440"><ele>132.80</ele><time>2015-11-04T10:39:01Z</time></trkpt><trkpt lat="51.7584469635" lon="-1.9852265250"><ele>132.80</ele><time>2015-11-04T10:39:23Z</time></trkpt><trkpt lat="51.7584403418" lon="-1.9852078333"><ele>132.80</ele><time>2015-11-04T10:39:44Z</time></trkpt><trkpt lat="51.7583829258" lon="-1.9851608947"><ele>132.80</ele><time>2015-11-04T10:40:05Z</time></trkpt><trkpt lat="51.7582776491" lon="-1.9849292189"><ele>132.32</ele><time>2015-11-04T10:40:21Z</time></trkpt><trkpt lat="51.7582992744" lon="-1.9848932605"><ele>132.32</ele><time>2015-11-04T10:40:38Z</time></trkpt><trkpt lat="51.7583333049" lon="-1.9848784246"><ele>132.32</ele><time>2015-11-04T10:40:56Z</time></trkpt><trkpt lat="51.7584265955" lon="-1.9848849624"><ele>131.84</ele><time>2015-11-04T10:41:11Z</time></trkpt><trkpt lat="51.7584401742" lon="-1.9849003013"><ele>154.91</ele><time>2015-11-04T10:41:24Z</time></trkpt><trkpt lat="51.7584409285" lon="-1.9849001337"><ele>132.80</ele><time>2015-11-04T10:41:25Z</time></trkpt><trkpt lat="51.7584419344" lon="-1.9849001337"><ele>131.84</ele><time>2015-11-04T10:41:27Z</time></trkpt><trkpt lat="51.7584759649" lon="-1.9849254470"><ele>131.84</ele><time>2015-11-04T10:41:45Z</time></trkpt></trkseg><trkseg><trkpt lat="51.7584870290" lon="-1.9849131256"><ele>131.84</ele><time>2015-11-04T10:50:54Z</time></trkpt><trkpt lat="51.7583647370" lon="-1.9848364312"><ele>132.32</ele><time>2015-11-04T10:51:08Z</time></trkpt><trkpt lat="51.7583747115" lon="-1.9848518539"><ele>132.80</ele><time>2015-11-04T10:51:29Z</time></trkpt><trkpt lat="51.7584579438" lon="-1.9848664384"><ele>132.32</ele><time>2015-11-04T10:51:46Z</time></trkpt><trkpt lat="51.7584780604" lon="-1.9848862197"><ele>131.84</ele><time>2015-11-04T10:52:16Z</time></trkpt><trkpt lat="51.7584775575" lon="-1.9848576374"><ele>132.32</ele><time>2015-11-04T10:52:42Z</time></trkpt><trkpt lat="51.7584980931" lon="-1.9848670252"><ele>132.32</ele><time>2015-11-04T10:53:00Z</time></trkpt><trkpt lat="51.7584991828" lon="-1.9848728087"><ele>128.95</ele><time>2015-11-04T10:53:15Z</time></trkpt><trkpt lat="51.7585006915" lon="-1.9848739821"><ele>132.80</ele><time>2015-11-04T10:53:16Z</time></trkpt><trkpt lat="51.7584900465" lon="-1.9848714676"><ele>131.84</ele><time>2015-11-04T10:53:43Z</time></trkpt><trkpt lat="51.7584811617" lon="-1.9848699588"><ele>131.84</ele><time>2015-11-04T10:54:18Z</time></trkpt><trkpt lat="51.7584864423" lon="-1.9848661032"><ele>131.84</ele><time>2015-11-04T10:54:46Z</time></trkpt><trkpt lat="51.7584836762" lon="-1.9848469086"><ele>131.84</ele><time>2015-11-04T10:55:15Z</time></trkpt><trkpt lat="51.7584768869" lon="-1.9848277979"><ele>131.84</ele><time>2015-11-04T10:55:41Z</time></trkpt><trkpt lat="51.7584741209" lon="-1.9848306477"><ele>132.32</ele><time>2015-11-04T10:56:09Z</time></trkpt><trkpt lat="51.7584742885" lon="-1.9848316535"><ele>131.84</ele><time>2015-11-04T10:56:30Z</time></trkpt><trkpt lat="51.7584723607" lon="-1.9848430529"><ele>132.32</ele><time>2015-11-04T10:56:51Z</time></trkpt><trkpt lat="51.7584761325" lon="-1.9848417118"><ele>132.32</ele><time>2015-11-04T10:57:15Z</time></trkpt><trkpt lat="51.7584787309" lon="-1.9848566316"><ele>132.32</ele><time>2015-11-04T10:57:39Z</time></trkpt><trkpt lat="51.7584756296" lon="-1.9848549552"><ele>132.32</ele><time>2015-11-04T10:57:58Z</time></trkpt><trkpt lat="51.7584764678" lon="-1.9848940149"><ele>132.80</ele><time>2015-11-04T10:58:12Z</time></trkpt><trkpt lat="51.7584788147" lon="-1.9848956913"><ele>132.80</ele><time>2015-11-04T10:58:30Z</time></trkpt><trkpt lat="51.7584840953" lon="-1.9848886505"><ele>132.80</ele><time>2015-11-04T10:58:47Z</time></trkpt><trkpt lat="51.7584815808" lon="-1.9848821126"><ele>132.32</ele><time>2015-11-04T10:59:15Z</time></trkpt><trkpt lat="51.7584850173" lon="-1.9848768320"><ele>132.80</ele><time>2015-11-04T10:59:39Z</time></trkpt><trkpt lat="51.7584814969" lon="-1.9848703779"><ele>132.32</ele><time>2015-11-04T11:00:07Z</time></trkpt><trkpt lat="51.7584860232" lon="-1.9848804362"><ele>132.32</ele><time>2015-11-04T11:00:36Z</time></trkpt><trkpt lat="51.7584842630" lon="-1.9848726410"><ele>133.28</ele><time>2015-11-04T11:01:03Z</time></trkpt><trkpt lat="51.7584827542" lon="-1.9848639239"><ele>132.80</ele><time>2015-11-04T11:01:31Z</time></trkpt><trkpt lat="51.7584795691" lon="-1.9848687015"><ele>132.80</ele><time>2015-11-04T11:01:56Z</time></trkpt><trkpt lat="51.7584768869" lon="-1.9848752394"><ele>133.28</ele><time>2015-11-04T11:02:22Z</time></trkpt><trkpt lat="51.7584699299" lon="-1.9848754909"><ele>133.28</ele><time>2015-11-04T11:02:50Z</time></trkpt><trkpt lat="51.7584745400" lon="-1.9848687854"><ele>132.80</ele><time>2015-11-04T11:03:10Z</time></trkpt><trkpt lat="51.7584772222" lon="-1.9848666061"><ele>132.80</ele><time>2015-11-04T11:03:37Z</time></trkpt><trkpt lat="51.7584723607" lon="-1.9848648459"><ele>133.28</ele><time>2015-11-04T11:04:05Z</time></trkpt><trkpt lat="51.7584769707" lon="-1.9848700427"><ele>132.80</ele><time>2015-11-04T11:04:35Z</time></trkpt><trkpt lat="51.7584783956" lon="-1.9848763291"><ele>133.76</ele><time>2015-11-04T11:05:06Z</time></trkpt><trkpt lat="51.7584815808" lon="-1.9848767482"><ele>133.28</ele><time>2015-11-04T11:05:35Z</time></trkpt><trkpt lat="51.7584788147" lon="-1.9848728087"><ele>133.28</ele><time>2015-11-04T11:06:04Z</time></trkpt><trkpt lat="51.7584827542" lon="-1.9848689530"><ele>133.28</ele><time>2015-11-04T11:06:31Z</time></trkpt><trkpt lat="51.7584747914" lon="-1.9848633371"><ele>132.80</ele><time>2015-11-04T11:06:55Z</time></trkpt><trkpt lat="51.7584699299" lon="-1.9848737307"><ele>133.28</ele><time>2015-11-04T11:07:24Z</time></trkpt><trkpt lat="51.7584773060" lon="-1.9848951045"><ele>133.28</ele><time>2015-11-04T11:08:02Z</time></trkpt><trkpt lat="51.7584726121" lon="-1.9848999660"><ele>132.80</ele><time>2015-11-04T11:08:33Z</time></trkpt><trkpt lat="51.7584675830" lon="-1.9848993793"><ele>133.28</ele><time>2015-11-04T11:09:13Z</time></trkpt><trkpt lat="51.7584670801" lon="-1.9848941825"><ele>133.28</ele><time>2015-11-04T11:09:37Z</time></trkpt><trkpt lat="51.7584847659" lon="-1.9848494232"><ele>133.28</ele><time>2015-11-04T11:09:59Z</time></trkpt><trkpt lat="51.7584875319" lon="-1.9848384429"><ele>132.80</ele><time>2015-11-04T11:10:24Z</time></trkpt><trkpt lat="51.7584586143" lon="-1.9848324079"><ele>133.76</ele><time>2015-11-04T11:10:47Z</time></trkpt><trkpt lat="51.7583716102" lon="-1.9848438073"><ele>134.72</ele><time>2015-11-04T11:11:02Z</time></trkpt><trkpt lat="51.7582811695" lon="-1.9848621637"><ele>133.76</ele><time>2015-11-04T11:11:16Z</time></trkpt><trkpt lat="51.7581919860" lon="-1.9848573860"><ele>133.76</ele><time>2015-11-04T11:11:33Z</time></trkpt><trkpt lat="51.7581654992" lon="-1.9848289713"><ele>133.76</ele><time>2015-11-04T11:11:52Z</time></trkpt><trkpt lat="51.7581418622" lon="-1.9846205134"><ele>134.72</ele><time>2015-11-04T11:12:11Z</time></trkpt><trkpt lat="51.7580708675" lon="-1.9844447449"><ele>134.24</ele><time>2015-11-04T11:12:25Z</time></trkpt><trkpt lat="51.7580287904" lon="-1.9841519650"><ele>135.68</ele><time>2015-11-04T11:12:45Z</time></trkpt><trkpt lat="51.7578873038" lon="-1.9839585945"><ele>137.13</ele><time>2015-11-04T11:13:05Z</time></trkpt><trkpt lat="51.7577388603" lon="-1.9837588537"><ele>137.13</ele><time>2015-11-04T11:13:26Z</time></trkpt><trkpt lat="51.7576443963" lon="-1.9835897069"><ele>135.68</ele><time>2015-11-04T11:13:41Z</time></trkpt><trkpt lat="51.7574791051" lon="-1.9833826739"><ele>134.72</ele><time>2015-11-04T11:14:01Z</time></trkpt><trkpt lat="51.7573258001" lon="-1.9832043909"><ele>133.28</ele><time>2015-11-04T11:14:24Z</time></trkpt><trkpt lat="51.7571471818" lon="-1.9829881378"><ele>133.28</ele><time>2015-11-04T11:14:47Z</time></trkpt><trkpt lat="51.7569619417" lon="-1.9828236848"><ele>132.80</ele><time>2015-11-04T11:15:09Z</time></trkpt><trkpt lat="51.7567800544" lon="-1.9826495089"><ele>131.84</ele><time>2015-11-04T11:15:30Z</time></trkpt><trkpt lat="51.7566295993" lon="-1.9824925996"><ele>132.32</ele><time>2015-11-04T11:15:49Z</time></trkpt><trkpt lat="51.7564235721" lon="-1.9822919369"><ele>132.80</ele><time>2015-11-04T11:16:11Z</time></trkpt><trkpt lat="51.7562544253" lon="-1.9820679724"><ele>132.80</ele><time>2015-11-04T11:16:31Z</time></trkpt><trkpt lat="51.7561355699" lon="-1.9817585964"><ele>131.84</ele><time>2015-11-04T11:16:52Z</time></trkpt><trkpt lat="51.7560532596" lon="-1.9815150183"><ele>131.84</ele><time>2015-11-04T11:17:11Z</time></trkpt><trkpt lat="51.7559550237" lon="-1.9812426064"><ele>131.84</ele><time>2015-11-04T11:17:27Z</time></trkpt><trkpt lat="51.7558482382" lon="-1.9809390139"><ele>131.36</ele><time>2015-11-04T11:17:46Z</time></trkpt><trkpt lat="51.7558007129" lon="-1.9808620680"><ele>131.36</ele><time>2015-11-04T11:18:00Z</time></trkpt><trkpt lat="51.7557717953" lon="-1.9807448890"><ele>131.84</ele><time>2015-11-04T11:18:15Z</time></trkpt><trkpt lat="51.7556782532" lon="-1.9804645143"><ele>131.36</ele><time>2015-11-04T11:18:30Z</time></trkpt><trkpt lat="51.7555740662" lon="-1.9802700542"><ele>131.36</ele><time>2015-11-04T11:18:45Z</time></trkpt><trkpt lat="51.7554883193" lon="-1.9800776895"><ele>131.84</ele><time>2015-11-04T11:19:00Z</time></trkpt><trkpt lat="51.7554039974" lon="-1.9797997456"><ele>131.84</ele><time>2015-11-04T11:19:19Z</time></trkpt><trkpt lat="51.7553906702" lon="-1.9797695708"><ele>131.36</ele><time>2015-11-04T11:19:21Z</time></trkpt><trkpt lat="51.7553028278" lon="-1.9794935547"><ele>131.36</ele><time>2015-11-04T11:19:37Z</time></trkpt><trkpt lat="51.7552369460" lon="-1.9792947359"><ele>130.88</ele><time>2015-11-04T11:19:53Z</time></trkpt><trkpt lat="51.7551773507" lon="-1.9790752977"><ele>130.88</ele><time>2015-11-04T11:20:07Z</time></trkpt><trkpt lat="51.7551441584" lon="-1.9789790735"><ele>130.40</ele><time>2015-11-04T11:20:14Z</time></trkpt><trkpt lat="51.7551102117" lon="-1.9788808376"><ele>130.88</ele><time>2015-11-04T11:20:21Z</time></trkpt><trkpt lat="51.7550590821" lon="-1.9786659256"><ele>130.40</ele><time>2015-11-04T11:20:36Z</time></trkpt><trkpt lat="51.7549974751" lon="-1.9784367643"><ele>129.92</ele><time>2015-11-04T11:20:51Z</time></trkpt><trkpt lat="51.7549154162" lon="-1.9781628437"><ele>130.40</ele><time>2015-11-04T11:21:08Z</time></trkpt><trkpt lat="51.7548212036" lon="-1.9778745901"><ele>130.40</ele><time>2015-11-04T11:21:27Z</time></trkpt><trkpt lat="51.7547188606" lon="-1.9775282498"><ele>130.40</ele><time>2015-11-04T11:21:46Z</time></trkpt><trkpt lat="51.7546601035" lon="-1.9772755355"><ele>129.92</ele><time>2015-11-04T11:22:01Z</time></trkpt><trkpt lat="51.7546061240" lon="-1.9770378247"><ele>129.92</ele><time>2015-11-04T11:22:18Z</time></trkpt><trkpt lat="51.7545924615" lon="-1.9769235794"><ele>129.92</ele><time>2015-11-04T11:22:38Z</time></trkpt><trkpt lat="51.7545887735" lon="-1.9768373296"><ele>129.43</ele><time>2015-11-04T11:23:00Z</time></trkpt><trkpt lat="51.7545565870" lon="-1.9765484892"><ele>128.95</ele><time>2015-11-04T11:23:20Z</time></trkpt><trkpt lat="51.7544518132" lon="-1.9761276338"><ele>128.47</ele><time>2015-11-04T11:23:38Z</time></trkpt><trkpt lat="51.7543776333" lon="-1.9758129772"><ele>127.99</ele><time>2015-11-04T11:23:53Z</time></trkpt><trkpt lat="51.7542819958" lon="-1.9755492825"><ele>127.51</ele><time>2015-11-04T11:24:11Z</time></trkpt><trkpt lat="51.7542597000" lon="-1.9755219575"><ele>127.51</ele><time>2015-11-04T11:24:13Z</time></trkpt><trkpt lat="51.7540763039" lon="-1.9754449278"><ele>128.47</ele><time>2015-11-04T11:24:28Z</time></trkpt><trkpt lat="51.7539267708" lon="-1.9755094685"><ele>129.43</ele><time>2015-11-04T11:24:43Z</time></trkpt><trkpt lat="51.7537789140" lon="-1.9755520485"><ele>129.92</ele><time>2015-11-04T11:24:57Z</time></trkpt><trkpt lat="51.7536676861" lon="-1.9755652919"><ele>130.88</ele><time>2015-11-04T11:25:13Z</time></trkpt><trkpt lat="51.7534961086" lon="-1.9755820557"><ele>131.36</ele><time>2015-11-04T11:25:27Z</time></trkpt><trkpt lat="51.7533022352" lon="-1.9755443372"><ele>132.32</ele><time>2015-11-04T11:25:44Z</time></trkpt><trkpt lat="51.7532415502" lon="-1.9755080435"><ele>132.32</ele><time>2015-11-04T11:25:51Z</time></trkpt><trkpt lat="51.7530754209" lon="-1.9753326103"><ele>131.84</ele><time>2015-11-04T11:26:08Z</time></trkpt><trkpt lat="51.7529641092" lon="-1.9752547424"><ele>131.84</ele><time>2015-11-04T11:26:24Z</time></trkpt><trkpt lat="51.7529638577" lon="-1.9752545748"><ele>131.36</ele><time>2015-11-04T11:26:26Z</time></trkpt><trkpt lat="51.7528652027" lon="-1.9752134196"><ele>131.36</ele><time>2015-11-04T11:26:41Z</time></trkpt><trkpt lat="51.7528263107" lon="-1.9751807302"><ele>131.36</ele><time>2015-11-04T11:26:45Z</time></trkpt><trkpt lat="51.7526300903" lon="-1.9749224000"><ele>131.36</ele><time>2015-11-04T11:27:05Z</time></trkpt><trkpt lat="51.7525192816" lon="-1.9747871999"><ele>131.84</ele><time>2015-11-04T11:27:19Z</time></trkpt><trkpt lat="51.7524845805" lon="-1.9747065660"><ele>131.84</ele><time>2015-11-04T11:27:33Z</time></trkpt><trkpt lat="51.7525345366" lon="-1.9745214097"><ele>129.92</ele><time>2015-11-04T11:27:51Z</time></trkpt><trkpt lat="51.7526357900" lon="-1.9743056595"><ele>128.95</ele><time>2015-11-04T11:28:06Z</time></trkpt><trkpt lat="51.7527089640" lon="-1.9741515163"><ele>127.99</ele><time>2015-11-04T11:28:19Z</time></trkpt><trkpt lat="51.7527294997" lon="-1.9741175696"><ele>127.51</ele><time>2015-11-04T11:28:22Z</time></trkpt><trkpt lat="51.7528794520" lon="-1.9739822857"><ele>125.59</ele><time>2015-11-04T11:28:38Z</time></trkpt><trkpt lat="51.7529510334" lon="-1.9738220237"><ele>126.07</ele><time>2015-11-04T11:28:51Z</time></trkpt><trkpt lat="51.7530321702" lon="-1.9736190978"><ele>125.11</ele><time>2015-11-04T11:29:06Z</time></trkpt><trkpt lat="51.7531607486" lon="-1.9735305849"><ele>125.11</ele><time>2015-11-04T11:29:23Z</time></trkpt><trkpt lat="51.7531941924" lon="-1.9733207021"><ele>124.15</ele><time>2015-11-04T11:29:39Z</time></trkpt><trkpt lat="51.7532039154" lon="-1.9731497951"><ele>124.15</ele><time>2015-11-04T11:29:56Z</time></trkpt><trkpt lat="51.7531970423" lon="-1.9731631223"><ele>124.15</ele><time>2015-11-04T11:30:15Z</time></trkpt><trkpt lat="51.7531884927" lon="-1.9731575903"><ele>124.63</ele><time>2015-11-04T11:30:36Z</time></trkpt><trkpt lat="51.7531754170" lon="-1.9731484540"><ele>123.67</ele><time>2015-11-04T11:30:59Z</time></trkpt><trkpt lat="51.7531782668" lon="-1.9731408264"><ele>123.67</ele><time>2015-11-04T11:31:23Z</time></trkpt><trkpt lat="51.7531747464" lon="-1.9731321931"><ele>123.19</ele><time>2015-11-04T11:31:43Z</time></trkpt><trkpt lat="51.7531701364" lon="-1.9731338695"><ele>123.19</ele><time>2015-11-04T11:32:03Z</time></trkpt><trkpt lat="51.7531872354" lon="-1.9731482863"><ele>123.67</ele><time>2015-11-04T11:32:30Z</time></trkpt><trkpt lat="51.7531875707" lon="-1.9731298462"><ele>123.19</ele><time>2015-11-04T11:32:48Z</time></trkpt><trkpt lat="51.7532577273" lon="-1.9729884434"><ele>123.19</ele><time>2015-11-04T11:33:02Z</time></trkpt><trkpt lat="51.7533264589" lon="-1.9728181232"><ele>122.71</ele><time>2015-11-04T11:33:13Z</time></trkpt><trkpt lat="51.7533804383" lon="-1.9725280255"><ele>122.71</ele><time>2015-11-04T11:33:27Z</time></trkpt><trkpt lat="51.7533547059" lon="-1.9724504929"><ele>122.71</ele><time>2015-11-04T11:33:31Z</time></trkpt><trkpt lat="51.7533086892" lon="-1.9721234310"><ele>123.19</ele><time>2015-11-04T11:33:50Z</time></trkpt><trkpt lat="51.7532366887" lon="-1.9717677031"><ele>123.67</ele><time>2015-11-04T11:34:06Z</time></trkpt><trkpt lat="51.7532712221" lon="-1.9714280684"><ele>123.67</ele><time>2015-11-04T11:34:27Z</time></trkpt><trkpt lat="51.7533555441" lon="-1.9712477736"><ele>124.15</ele><time>2015-11-04T11:34:41Z</time></trkpt><trkpt lat="51.7535132915" lon="-1.9710937981"><ele>124.63</ele><time>2015-11-04T11:34:57Z</time></trkpt><trkpt lat="51.7536975257" lon="-1.9709419180"><ele>125.59</ele><time>2015-11-04T11:35:14Z</time></trkpt><trkpt lat="51.7538353242" lon="-1.9707379024"><ele>125.59</ele><time>2015-11-04T11:35:33Z</time></trkpt><trkpt lat="51.7539464682" lon="-1.9705521595"><ele>125.59</ele><time>2015-11-04T11:35:51Z</time></trkpt><trkpt lat="51.7540764716" lon="-1.9703380018"><ele>125.11</ele><time>2015-11-04T11:36:11Z</time></trkpt><trkpt lat="51.7541927285" lon="-1.9700590521"><ele>125.59</ele><time>2015-11-04T11:36:32Z</time></trkpt><trkpt lat="51.7542306986" lon="-1.9699445553"><ele>125.59</ele><time>2015-11-04T11:36:41Z</time></trkpt><trkpt lat="51.7543260846" lon="-1.9697048329"><ele>127.03</ele><time>2015-11-04T11:37:01Z</time></trkpt><trkpt lat="51.7544197105" lon="-1.9694197644"><ele>127.51</ele><time>2015-11-04T11:37:21Z</time></trkpt><trkpt lat="51.7545378953" lon="-1.9691497833"><ele>127.99</ele><time>2015-11-04T11:37:41Z</time></trkpt><trkpt lat="51.7546310183" lon="-1.9689414930"><ele>127.99</ele><time>2015-11-04T11:37:59Z</time></trkpt><trkpt lat="51.7547094729" lon="-1.9687332027"><ele>127.99</ele><time>2015-11-04T11:38:15Z</time></trkpt><trkpt lat="51.7547978181" lon="-1.9685495552"><ele>128.95</ele><time>2015-11-04T11:38:31Z</time></trkpt><trkpt lat="51.7548717465" lon="-1.9683833420"><ele>128.95</ele><time>2015-11-04T11:38:44Z</time></trkpt><trkpt lat="51.7549610976" lon="-1.9682012871"><ele>129.43</ele><time>2015-11-04T11:38:59Z</time></trkpt><trkpt lat="51.7549860757" lon="-1.9681673404"><ele>129.43</ele><time>2015-11-04T11:39:04Z</time></trkpt><trkpt lat="51.7550170049" lon="-1.9680847786"><ele>129.43</ele><time>2015-11-04T11:39:10Z</time></trkpt><trkpt lat="51.7551015783" lon="-1.9679301325"><ele>129.92</ele><time>2015-11-04T11:39:23Z</time></trkpt><trkpt lat="51.7551737465" lon="-1.9678060804"><ele>130.40</ele><time>2015-11-04T11:39:34Z</time></trkpt><trkpt lat="51.7552315816" lon="-1.9676592294"><ele>130.40</ele><time>2015-11-04T11:39:45Z</time></trkpt><trkpt lat="51.7552880757" lon="-1.9675254542"><ele>130.88</ele><time>2015-11-04T11:39:56Z</time></trkpt><trkpt lat="51.7553237826" lon="-1.9674745761"><ele>130.40</ele><time>2015-11-04T11:40:01Z</time></trkpt><trkpt lat="51.7553960346" lon="-1.9672992267"><ele>131.36</ele><time>2015-11-04T11:40:15Z</time></trkpt><trkpt lat="51.7554591503" lon="-1.9671284035"><ele>131.36</ele><time>2015-11-04T11:40:27Z</time></trkpt><trkpt lat="51.7555481661" lon="-1.9670101348"><ele>131.36</ele><time>2015-11-04T11:40:39Z</time></trkpt><trkpt lat="51.7557318974" lon="-1.9669517130"><ele>129.92</ele><time>2015-11-04T11:40:55Z</time></trkpt><trkpt lat="51.7558992840" lon="-1.9668580871"><ele>129.43</ele><time>2015-11-04T11:41:11Z</time></trkpt><trkpt lat="51.7559550237" lon="-1.9668350369"><ele>129.92</ele><time>2015-11-04T11:41:17Z</time></trkpt><trkpt lat="51.7559763137" lon="-1.9668103103"><ele>129.92</ele><time>2015-11-04T11:41:20Z</time></trkpt><trkpt lat="51.7560157087" lon="-1.9667932112"><ele>129.43</ele><time>2015-11-04T11:41:24Z</time></trkpt><trkpt lat="51.7561405990" lon="-1.9667362981"><ele>128.95</ele><time>2015-11-04T11:41:38Z</time></trkpt><trkpt lat="51.7562578619" lon="-1.9666330330"><ele>128.95</ele><time>2015-11-04T11:41:52Z</time></trkpt><trkpt lat="51.7563856021" lon="-1.9665605295"><ele>129.43</ele><time>2015-11-04T11:42:05Z</time></trkpt><trkpt lat="51.7564060539" lon="-1.9665462803"><ele>128.95</ele><time>2015-11-04T11:42:08Z</time></trkpt><trkpt lat="51.7564369831" lon="-1.9665337075"><ele>128.95</ele><time>2015-11-04T11:42:11Z</time></trkpt><trkpt lat="51.7565451935" lon="-1.9665085617"><ele>128.47</ele><time>2015-11-04T11:42:25Z</time></trkpt><trkpt lat="51.7565507255" lon="-1.9664596952"><ele>128.47</ele><time>2015-11-04T11:42:39Z</time></trkpt><trkpt lat="51.7566435970" lon="-1.9663628004"><ele>128.47</ele><time>2015-11-04T11:42:59Z</time></trkpt><trkpt lat="51.7566457763" lon="-1.9663582742"><ele>128.47</ele><time>2015-11-04T11:43:00Z</time></trkpt><trkpt lat="51.7568254005" lon="-1.9662622176"><ele>128.47</ele><time>2015-11-04T11:43:14Z</time></trkpt><trkpt lat="51.7570090480" lon="-1.9661935698"><ele>127.99</ele><time>2015-11-04T11:43:25Z</time></trkpt><trkpt lat="51.7571056075" lon="-1.9661481399"><ele>127.51</ele><time>2015-11-04T11:43:41Z</time></trkpt><trkpt lat="51.7572083697" lon="-1.9660511613"><ele>127.03</ele><time>2015-11-04T11:43:55Z</time></trkpt><trkpt lat="51.7572981399" lon="-1.9659665879"><ele>126.55</ele><time>2015-11-04T11:44:11Z</time></trkpt><trkpt lat="51.7574382015" lon="-1.9658834394"><ele>126.55</ele><time>2015-11-04T11:44:25Z</time></trkpt><trkpt lat="51.7574982997" lon="-1.9658168871"><ele>125.59</ele><time>2015-11-04T11:44:41Z</time></trkpt><trkpt lat="51.7576669436" lon="-1.9656922482"><ele>126.07</ele><time>2015-11-04T11:44:53Z</time></trkpt><trkpt lat="51.7579265311" lon="-1.9656039868"><ele>126.07</ele><time>2015-11-04T11:45:10Z</time></trkpt><trkpt lat="51.7581096757" lon="-1.9654598180"><ele>125.59</ele><time>2015-11-04T11:45:28Z</time></trkpt><trkpt lat="51.7583331373" lon="-1.9652848877"><ele>125.59</ele><time>2015-11-04T11:45:44Z</time></trkpt><trkpt lat="51.7584474664" lon="-1.9652026612"><ele>126.07</ele><time>2015-11-04T11:45:57Z</time></trkpt><trkpt lat="51.7584782280" lon="-1.9651891664"><ele>125.59</ele><time>2015-11-04T11:46:00Z</time></trkpt><trkpt lat="51.7585729435" lon="-1.9651450776"><ele>125.59</ele><time>2015-11-04T11:46:11Z</time></trkpt><trkpt lat="51.7586396635" lon="-1.9651272241"><ele>125.11</ele><time>2015-11-04T11:46:27Z</time></trkpt><trkpt lat="51.7588002607" lon="-1.9650417287"><ele>125.11</ele><time>2015-11-04T11:46:44Z</time></trkpt><trkpt lat="51.7589334492" lon="-1.9649586640"><ele>125.59</ele><time>2015-11-04T11:47:02Z</time></trkpt><trkpt lat="51.7590242252" lon="-1.9649426546"><ele>125.11</ele><time>2015-11-04T11:47:16Z</time></trkpt><trkpt lat="51.7591670528" lon="-1.9649041817"><ele>125.11</ele><time>2015-11-04T11:47:31Z</time></trkpt><trkpt lat="51.7593191005" lon="-1.9648642838"><ele>124.63</ele><time>2015-11-04T11:47:47Z</time></trkpt><trkpt lat="51.7594465893" lon="-1.9648489449"><ele>124.63</ele><time>2015-11-04T11:48:02Z</time></trkpt><trkpt lat="51.7595417239" lon="-1.9648382161"><ele>124.63</ele><time>2015-11-04T11:48:18Z</time></trkpt><trkpt lat="51.7596608307" lon="-1.9648565724"><ele>124.63</ele><time>2015-11-04T11:48:33Z</time></trkpt><trkpt lat="51.7598857172" lon="-1.9649066962"><ele>124.15</ele><time>2015-11-04T11:48:52Z</time></trkpt><trkpt lat="51.7599579692" lon="-1.9649630226"><ele>124.15</ele><time>2015-11-04T11:49:08Z</time></trkpt><trkpt lat="51.7600534391" lon="-1.9650410581"><ele>124.15</ele><time>2015-11-04T11:49:25Z</time></trkpt><trkpt lat="51.7601022217" lon="-1.9650816265"><ele>124.15</ele><time>2015-11-04T11:49:30Z</time></trkpt><trkpt lat="51.7602002062" lon="-1.9651704747"><ele>123.67</ele><time>2015-11-04T11:49:40Z</time></trkpt><trkpt lat="51.7602414452" lon="-1.9652287290"><ele>123.67</ele><time>2015-11-04T11:49:46Z</time></trkpt><trkpt lat="51.7603541818" lon="-1.9653434772"><ele>124.15</ele><time>2015-11-04T11:49:58Z</time></trkpt><trkpt lat="51.7604443710" lon="-1.9654323254"><ele>123.67</ele><time>2015-11-04T11:50:12Z</time></trkpt><trkpt lat="51.7604745459" lon="-1.9654599018"><ele>124.15</ele><time>2015-11-04T11:50:15Z</time></trkpt><trkpt lat="51.7605940718" lon="-1.9656111114"><ele>124.15</ele><time>2015-11-04T11:50:29Z</time></trkpt><trkpt lat="51.7606838420" lon="-1.9657378457"><ele>123.67</ele><time>2015-11-04T11:50:41Z</time></trkpt><trkpt lat="51.7607322894" lon="-1.9657820184"><ele>123.67</ele><time>2015-11-04T11:50:47Z</time></trkpt><trkpt lat="51.7607695889" lon="-1.9658661727"><ele>123.67</ele><time>2015-11-04T11:50:54Z</time></trkpt><trkpt lat="51.7608015239" lon="-1.9659018796"><ele>123.67</ele><time>2015-11-04T11:50:58Z</time></trkpt><trkpt lat="51.7608876899" lon="-1.9660566095"><ele>123.67</ele><time>2015-11-04T11:51:13Z</time></trkpt><trkpt lat="51.7609228939" lon="-1.9661243353"><ele>123.67</ele><time>2015-11-04T11:51:19Z</time></trkpt><trkpt lat="51.7610012647" lon="-1.9662809931"><ele>123.67</ele><time>2015-11-04T11:51:33Z</time></trkpt><trkpt lat="51.7610747740" lon="-1.9664203841"><ele>123.67</ele><time>2015-11-04T11:51:45Z</time></trkpt><trkpt lat="51.7611407395" lon="-1.9665468670"><ele>124.15</ele><time>2015-11-04T11:51:57Z</time></trkpt><trkpt lat="51.7611932941" lon="-1.9666743558"><ele>124.15</ele><time>2015-11-04T11:52:07Z</time></trkpt><trkpt lat="51.7612506263" lon="-1.9668450113"><ele>124.15</ele><time>2015-11-04T11:52:20Z</time></trkpt><trkpt lat="51.7613092996" lon="-1.9670035969"><ele>124.15</ele><time>2015-11-04T11:52:33Z</time></trkpt><trkpt lat="51.7613296676" lon="-1.9670714904"><ele>123.67</ele><time>2015-11-04T11:52:38Z</time></trkpt><trkpt lat="51.7613917775" lon="-1.9671867415"><ele>124.15</ele><time>2015-11-04T11:52:49Z</time></trkpt><trkpt lat="51.7614703998" lon="-1.9673528709"><ele>124.15</ele><time>2015-11-04T11:53:01Z</time></trkpt><trkpt lat="51.7615266424" lon="-1.9675631728"><ele>124.15</ele><time>2015-11-04T11:53:16Z</time></trkpt><trkpt lat="51.7615546379" lon="-1.9676976185"><ele>124.15</ele><time>2015-11-04T11:53:27Z</time></trkpt><trkpt lat="51.7615717370" lon="-1.9677717984"><ele>124.15</ele><time>2015-11-04T11:53:33Z</time></trkpt><trkpt lat="51.7615962960" lon="-1.9678182341"><ele>123.67</ele><time>2015-11-04T11:53:38Z</time></trkpt><trkpt lat="51.7616633512" lon="-1.9679835252"><ele>124.63</ele><time>2015-11-04T11:53:52Z</time></trkpt><trkpt lat="51.7616758402" lon="-1.9679981098"><ele>124.15</ele><time>2015-11-04T11:53:54Z</time></trkpt><trkpt lat="51.7616866529" lon="-1.9680299610"><ele>124.15</ele><time>2015-11-04T11:53:56Z</time></trkpt><trkpt lat="51.7617677059" lon="-1.9682341442"><ele>124.63</ele><time>2015-11-04T11:54:11Z</time></trkpt><trkpt lat="51.7617999762" lon="-1.9683156163"><ele>124.63</ele><time>2015-11-04T11:54:22Z</time></trkpt><trkpt lat="51.7618170753" lon="-1.9683356490"><ele>124.15</ele><time>2015-11-04T11:54:46Z</time></trkpt><trkpt lat="51.7618334200" lon="-1.9683809951"><ele>124.15</ele><time>2015-11-04T11:54:55Z</time></trkpt><trkpt lat="51.7619188316" lon="-1.9685285166"><ele>124.15</ele><time>2015-11-04T11:55:11Z</time></trkpt><trkpt lat="51.7619729787" lon="-1.9686222263"><ele>124.15</ele><time>2015-11-04T11:55:25Z</time></trkpt><trkpt lat="51.7620475776" lon="-1.9687182829"><ele>123.67</ele><time>2015-11-04T11:55:39Z</time></trkpt><trkpt lat="51.7621498369" lon="-1.9688580092"><ele>123.67</ele><time>2015-11-04T11:55:54Z</time></trkpt><trkpt lat="51.7622437142" lon="-1.9689514674"><ele>124.15</ele><time>2015-11-04T11:56:06Z</time></trkpt><trkpt lat="51.7623270303" lon="-1.9690358732"><ele>123.67</ele><time>2015-11-04T11:56:19Z</time></trkpt><trkpt lat="51.7623736337" lon="-1.9690858293"><ele>124.15</ele><time>2015-11-04T11:56:25Z</time></trkpt><trkpt lat="51.7624107655" lon="-1.9691225421"><ele>124.15</ele><time>2015-11-04T11:56:30Z</time></trkpt><trkpt lat="51.7625247594" lon="-1.9692018349"><ele>123.67</ele><time>2015-11-04T11:56:44Z</time></trkpt><trkpt lat="51.7626586184" lon="-1.9692776911"><ele>123.67</ele><time>2015-11-04T11:56:57Z</time></trkpt><trkpt lat="51.7627902143" lon="-1.9693660364"><ele>123.67</ele><time>2015-11-04T11:57:14Z</time></trkpt><trkpt lat="51.7629476264" lon="-1.9694362767"><ele>124.15</ele><time>2015-11-04T11:57:29Z</time></trkpt><trkpt lat="51.7630318645" lon="-1.9694755040"><ele>124.15</ele><time>2015-11-04T11:57:42Z</time></trkpt><trkpt lat="51.7631916236" lon="-1.9695213530"><ele>123.67</ele><time>2015-11-04T11:57:57Z</time></trkpt><trkpt lat="51.7633162625" lon="-1.9695558865"><ele>123.67</ele><time>2015-11-04T11:58:09Z</time></trkpt><trkpt lat="51.7633501254" lon="-1.9695653580"><ele>123.67</ele><time>2015-11-04T11:58:13Z</time></trkpt><trkpt lat="51.7635233793" lon="-1.9696178287"><ele>124.15</ele><time>2015-11-04T11:58:30Z</time></trkpt><trkpt lat="51.7636188492" lon="-1.9696549606"><ele>123.67</ele><time>2015-11-04T11:58:42Z</time></trkpt><trkpt lat="51.7637829669" lon="-1.9697019830"><ele>123.67</ele><time>2015-11-04T11:58:59Z</time></trkpt><trkpt lat="51.7639005650" lon="-1.9697410427"><ele>123.67</ele><time>2015-11-04T11:59:14Z</time></trkpt><trkpt lat="51.7640224379" lon="-1.9698029011"><ele>123.67</ele><time>2015-11-04T11:59:30Z</time></trkpt><trkpt lat="51.7640878167" lon="-1.9698267896"><ele>123.67</ele><time>2015-11-04T11:59:43Z</time></trkpt><trkpt lat="51.7642106954" lon="-1.9698672742"><ele>123.67</ele><time>2015-11-04T11:59:59Z</time></trkpt><trkpt lat="51.7642231006" lon="-1.9698714651"><ele>123.19</ele><time>2015-11-04T12:00:00Z</time></trkpt><trkpt lat="51.7643927503" lon="-1.9699190743"><ele>124.15</ele><time>2015-11-04T12:00:16Z</time></trkpt><trkpt lat="51.7643994559" lon="-1.9699209183"><ele>123.67</ele><time>2015-11-04T12:00:17Z</time></trkpt><trkpt lat="51.7644276191" lon="-1.9699319825"><ele>123.67</ele><time>2015-11-04T12:00:20Z</time></trkpt><trkpt lat="51.7645426188" lon="-1.9699728023"><ele>123.67</ele><time>2015-11-04T12:00:31Z</time></trkpt><trkpt lat="51.7645826004" lon="-1.9699824415"><ele>123.67</ele><time>2015-11-04T12:00:34Z</time></trkpt><trkpt lat="51.7647223268" lon="-1.9701043982"><ele>123.67</ele><time>2015-11-04T12:00:49Z</time></trkpt><trkpt lat="51.7648379970" lon="-1.9702307973"><ele>124.15</ele><time>2015-11-04T12:01:03Z</time></trkpt><trkpt lat="51.7649381608" lon="-1.9703430310"><ele>124.15</ele><time>2015-11-04T12:01:15Z</time></trkpt><trkpt lat="51.7649669945" lon="-1.9703821745"><ele>124.63</ele><time>2015-11-04T12:01:30Z</time></trkpt><trkpt lat="51.7649655696" lon="-1.9703849405"><ele>124.63</ele><time>2015-11-04T12:02:03Z</time></trkpt><trkpt lat="51.7649918888" lon="-1.9704196416"><ele>124.63</ele><time>2015-11-04T12:02:15Z</time></trkpt><trkpt lat="51.7650228180" lon="-1.9705009460"><ele>124.63</ele><time>2015-11-04T12:02:20Z</time></trkpt><trkpt lat="51.7650946509" lon="-1.9705853518"><ele>124.63</ele><time>2015-11-04T12:02:28Z</time></trkpt><trkpt lat="51.7651440203" lon="-1.9706342183"><ele>124.63</ele><time>2015-11-04T12:02:32Z</time></trkpt><trkpt lat="51.7651669029" lon="-1.9706488028"><ele>124.15</ele><time>2015-11-04T12:02:34Z</time></trkpt><trkpt lat="51.7653378937" lon="-1.9707566779"><ele>124.15</ele><time>2015-11-04T12:02:50Z</time></trkpt><trkpt lat="51.7654819787" lon="-1.9708773773"><ele>124.15</ele><time>2015-11-04T12:03:05Z</time></trkpt><trkpt lat="51.7656638660" lon="-1.9709464442"><ele>124.15</ele><time>2015-11-04T12:03:20Z</time></trkpt><trkpt lat="51.7657803744" lon="-1.9709332846"><ele>124.63</ele><time>2015-11-04T12:03:36Z</time></trkpt><trkpt lat="51.7658129800" lon="-1.9709095638"><ele>124.63</ele><time>2015-11-04T12:03:51Z</time></trkpt><trkpt lat="51.7658437416" lon="-1.9709162693"><ele>124.63</ele><time>2015-11-04T12:04:06Z</time></trkpt><trkpt lat="51.7658698093" lon="-1.9709115755"><ele>124.63</ele><time>2015-11-04T12:04:20Z</time></trkpt><trkpt lat="51.7659247946" lon="-1.9709105697"><ele>124.63</ele><time>2015-11-04T12:04:34Z</time></trkpt><trkpt lat="51.7660434823" lon="-1.9709254056"><ele>124.15</ele><time>2015-11-04T12:04:51Z</time></trkpt><trkpt lat="51.7661744077" lon="-1.9709409121"><ele>124.63</ele><time>2015-11-04T12:05:06Z</time></trkpt><trkpt lat="51.7663469072" lon="-1.9709433429"><ele>124.15</ele><time>2015-11-04T12:05:20Z</time></trkpt><trkpt lat="51.7665251903" lon="-1.9709488750"><ele>124.15</ele><time>2015-11-04T12:05:37Z</time></trkpt><trkpt lat="51.7666768190" lon="-1.9709430076"><ele>124.63</ele><time>2015-11-04T12:05:52Z</time></trkpt><trkpt lat="51.7668333091" lon="-1.9709336199"><ele>124.15</ele><time>2015-11-04T12:06:08Z</time></trkpt><trkpt lat="51.7669622228" lon="-1.9709404092"><ele>125.11</ele><time>2015-11-04T12:06:26Z</time></trkpt><trkpt lat="51.7670625541" lon="-1.9709241483"><ele>124.63</ele><time>2015-11-04T12:06:40Z</time></trkpt><trkpt lat="51.7671420984" lon="-1.9709424209"><ele>124.63</ele><time>2015-11-04T12:06:58Z</time></trkpt><trkpt lat="51.7672148533" lon="-1.9709493779"><ele>125.11</ele><time>2015-11-04T12:07:16Z</time></trkpt><trkpt lat="51.7673006002" lon="-1.9709351286"><ele>124.63</ele><time>2015-11-04T12:07:33Z</time></trkpt><trkpt lat="51.7674285080" lon="-1.9708944764"><ele>125.11</ele><time>2015-11-04T12:07:52Z</time></trkpt><trkpt lat="51.7677410692" lon="-1.9709003437"><ele>125.59</ele><time>2015-11-04T12:08:07Z</time></trkpt><trkpt lat="51.7679270636" lon="-1.9709005114"><ele>125.59</ele><time>2015-11-04T12:08:26Z</time></trkpt><trkpt lat="51.7680560611" lon="-1.9708643015"><ele>126.07</ele><time>2015-11-04T12:08:42Z</time></trkpt><trkpt lat="51.7681141477" lon="-1.9708266668"><ele>127.99</ele><time>2015-11-04T12:09:01Z</time></trkpt><trkpt lat="51.7681315821" lon="-1.9708141778"><ele>127.99</ele><time>2015-11-04T12:09:02Z</time></trkpt><trkpt lat="51.7681852262" lon="-1.9707877748"><ele>128.47</ele><time>2015-11-04T12:09:05Z</time></trkpt><trkpt lat="51.7683975399" lon="-1.9707492180"><ele>129.43</ele><time>2015-11-04T12:09:19Z</time></trkpt><trkpt lat="51.7684371863" lon="-1.9707324542"><ele>129.92</ele><time>2015-11-04T12:09:23Z</time></trkpt><trkpt lat="51.7684699595" lon="-1.9707209710"><ele>130.40</ele><time>2015-11-04T12:09:26Z</time></trkpt><trkpt lat="51.7685245257" lon="-1.9707129244"><ele>130.88</ele><time>2015-11-04T12:09:32Z</time></trkpt><trkpt lat="51.7686101887" lon="-1.9706889521"><ele>132.32</ele><time>2015-11-04T12:09:47Z</time></trkpt><trkpt lat="51.7686779983" lon="-1.9706799835"><ele>132.80</ele><time>2015-11-04T12:10:03Z</time></trkpt><trkpt lat="51.7687231768" lon="-1.9706954900"><ele>133.28</ele><time>2015-11-04T12:10:24Z</time></trkpt><trkpt lat="51.7687663436" lon="-1.9706515688"><ele>134.24</ele><time>2015-11-04T12:10:37Z</time></trkpt><trkpt lat="51.7687715404" lon="-1.9706400856"><ele>134.24</ele><time>2015-11-04T12:11:02Z</time></trkpt><trkpt lat="51.7687735520" lon="-1.9706427678"><ele>134.24</ele><time>2015-11-04T12:11:31Z</time></trkpt><trkpt lat="51.7687755637" lon="-1.9706474617"><ele>133.76</ele><time>2015-11-04T12:11:48Z</time></trkpt><trkpt lat="51.7687744740" lon="-1.9706441928"><ele>134.72</ele><time>2015-11-04T12:12:10Z</time></trkpt><trkpt lat="51.7687622365" lon="-1.9705852680"><ele>135.20</ele><time>2015-11-04T12:12:29Z</time></trkpt><trkpt lat="51.7687667627" lon="-1.9705865253"><ele>135.20</ele><time>2015-11-04T12:12:49Z</time></trkpt><trkpt lat="51.7687816825" lon="-1.9705748744"><ele>135.20</ele><time>2015-11-04T12:13:02Z</time></trkpt><trkpt lat="51.7687954288" lon="-1.9705659058"><ele>135.20</ele><time>2015-11-04T12:13:18Z</time></trkpt><trkpt lat="51.7688133661" lon="-1.9705854356"><ele>134.72</ele><time>2015-11-04T12:13:33Z</time></trkpt><trkpt lat="51.7688313033" lon="-1.9705964997"><ele>134.72</ele><time>2015-11-04T12:13:48Z</time></trkpt><trkpt lat="51.7688669264" lon="-1.9705884531"><ele>134.72</ele><time>2015-11-04T12:14:01Z</time></trkpt><trkpt lat="51.7689601332" lon="-1.9706067257"><ele>134.72</ele><time>2015-11-04T12:14:15Z</time></trkpt><trkpt lat="51.7690488975" lon="-1.9706368167"><ele>135.20</ele><time>2015-11-04T12:14:22Z</time></trkpt><trkpt lat="51.7690991890" lon="-1.9706724398"><ele>134.24</ele><time>2015-11-04T12:14:27Z</time></trkpt><trkpt lat="51.7691376619" lon="-1.9706815761"><ele>134.72</ele><time>2015-11-04T12:14:30Z</time></trkpt><trkpt lat="51.7692053877" lon="-1.9706876948"><ele>134.24</ele><time>2015-11-04T12:14:35Z</time></trkpt><trkpt lat="51.7692269292" lon="-1.9707066379"><ele>135.20</ele><time>2015-11-04T12:14:37Z</time></trkpt><trkpt lat="51.7693836708" lon="-1.9707656465"><ele>135.20</ele><time>2015-11-04T12:14:48Z</time></trkpt><trkpt lat="51.7695285939" lon="-1.9708410837"><ele>136.16</ele><time>2015-11-04T12:15:01Z</time></trkpt><trkpt lat="51.7695375625" lon="-1.9708430115"><ele>136.16</ele><time>2015-11-04T12:15:12Z</time></trkpt><trkpt lat="51.7696286738" lon="-1.9708558358"><ele>137.61</ele><time>2015-11-04T12:15:23Z</time></trkpt><trkpt lat="51.7697834037" lon="-1.9708534889"><ele>138.09</ele><time>2015-11-04T12:15:38Z</time></trkpt><trkpt lat="51.7698791251" lon="-1.9708325341"><ele>139.53</ele><time>2015-11-04T12:15:52Z</time></trkpt><trkpt lat="51.7700159177" lon="-1.9708083104"><ele>140.49</ele><time>2015-11-04T12:16:05Z</time></trkpt><trkpt lat="51.7700906005" lon="-1.9708162732"><ele>141.45</ele><time>2015-11-04T12:16:19Z</time></trkpt><trkpt lat="51.7701160815" lon="-1.9708007667"><ele>141.45</ele><time>2015-11-04T12:16:34Z</time></trkpt><trkpt lat="51.7701498605" lon="-1.9707866013"><ele>141.45</ele><time>2015-11-04T12:16:51Z</time></trkpt><trkpt lat="51.7703207675" lon="-1.9708304387"><ele>140.49</ele><time>2015-11-04T12:17:06Z</time></trkpt><trkpt lat="51.7704688758" lon="-1.9709539041"><ele>139.05</ele><time>2015-11-04T12:17:20Z</time></trkpt><trkpt lat="51.7704905011" lon="-1.9710065424"><ele>138.09</ele><time>2015-11-04T12:17:23Z</time></trkpt><trkpt lat="51.7705208436" lon="-1.9711134117"><ele>137.61</ele><time>2015-11-04T12:17:29Z</time></trkpt><trkpt lat="51.7705355119" lon="-1.9711994100"><ele>136.64</ele><time>2015-11-04T12:17:33Z</time></trkpt><trkpt lat="51.7705616634" lon="-1.9713521283"><ele>135.68</ele><time>2015-11-04T12:17:41Z</time></trkpt><trkpt lat="51.7705640942" lon="-1.9716390409"><ele>134.24</ele><time>2015-11-04T12:17:55Z</time></trkpt><trkpt lat="51.7705748230" lon="-1.9717847183"><ele>133.28</ele><time>2015-11-04T12:18:06Z</time></trkpt><trkpt lat="51.7705687042" lon="-1.9718466606"><ele>132.80</ele><time>2015-11-04T12:18:11Z</time></trkpt><trkpt lat="51.7705482524" lon="-1.9720898196"><ele>131.84</ele><time>2015-11-04T12:18:28Z</time></trkpt><trkpt lat="51.7705243640" lon="-1.9722465612"><ele>130.88</ele><time>2015-11-04T12:18:38Z</time></trkpt><trkpt lat="51.7704800237" lon="-1.9724247605"><ele>129.92</ele><time>2015-11-04T12:18:51Z</time></trkpt><trkpt lat="51.7704785988" lon="-1.9724833500"><ele>129.92</ele><time>2015-11-04T12:18:55Z</time></trkpt><trkpt lat="51.7704279721" lon="-1.9728063047"><ele>129.43</ele><time>2015-11-04T12:19:13Z</time></trkpt><trkpt lat="51.7704009824" lon="-1.9729547482"><ele>128.47</ele><time>2015-11-04T12:19:27Z</time></trkpt><trkpt lat="51.7703542113" lon="-1.9731394015"><ele>127.99</ele><time>2015-11-04T12:19:40Z</time></trkpt><trkpt lat="51.7703132238" lon="-1.9732705783"><ele>127.03</ele><time>2015-11-04T12:19:52Z</time></trkpt><trkpt lat="51.7702272255" lon="-1.9734094664"><ele>126.55</ele><time>2015-11-04T12:20:07Z</time></trkpt><trkpt lat="51.7701576557" lon="-1.9733962230"><ele>126.07</ele><time>2015-11-04T12:20:21Z</time></trkpt><trkpt lat="51.7700506188" lon="-1.9733088836"><ele>126.07</ele><time>2015-11-04T12:20:34Z</time></trkpt><trkpt lat="51.7699649557" lon="-1.9731855858"><ele>126.55</ele><time>2015-11-04T12:20:47Z</time></trkpt><trkpt lat="51.7699666321" lon="-1.9731912017"><ele>126.07</ele><time>2015-11-04T12:20:51Z</time></trkpt></trkseg></trk></gpx>